Terminal Aerodrome Forecast
Issued by NWS

Home | Current Version | Previous Version | Text Only | Print | Product List | Glossary On
Versions: 1 2 3 4 5 6 7 8 9 10 11 12 13 14 15 16 17 18 19 20 21 22 23 24 25 26 27 28 29 30 31 32 33 34 35 36 37 38
000
FTUS45 KGJT 282327
TAFASE
TAFASE
TAF
KASE 282327Z 2900/2924 35003KT P6SM VCTS BKN070CB
      TEMPO 2900/2903 VRB20G35KT -TSRA SCT030CB
     FM290300 32007KT P6SM VCSH SCT070 BKN120
     FM290600 22005KT P6SM SCT140
     FM291200 VRB03KT P6SM SCT200
     FM291800 36007KT P6SM BKN150=

USA.gov is the U.S. government's official web portal to all federal, state and local government web resources and services.